Time;durP1;ratioP1;P1;durP2;ratioP2;P2;SDS_P1;SDS_P2;PMS_P1;PMS_P2;Temp;Humidity;BMP_temperature;BMP_pressure;BME280_temperature;BME280_humidity;BME280_pressure;Samples;Min_cycle;Max_cycle;Signal;HPM_P1;HPM_P2
2023/04/19 00:01:38;;;;;;;22.58;13.65;;;;;;;-144.87;100.00;61487.56;4932847;29;20054;-78
2023/04/19 00:04:04;;;;;;;26.10;15.13;;;;;;;-144.87;100.00;61487.56;4931653;29;20479;-78
2023/04/19 00:06:31;;;;;;;19.20;13.52;;;;;;;-144.87;100.00;61487.56;4912532;29;20123;-79
2023/04/19 00:08:57;;;;;;;23.10;14.90;;;;;;;-144.87;100.00;61487.56;4946252;28;20047;-77
2023/04/19 00:11:24;;;;;;;19.98;14.27;;;;;;;-144.87;100.00;61487.56;4932040;29;20110;-77
2023/04/19 00:13:50;;;;;;;19.60;13.20;;;;;;;-144.87;100.00;61487.56;4934119;29;20497;-81
2023/04/19 00:16:16;;;;;;;24.45;15.70;;;;;;;-144.87;100.00;61487.56;4930582;29;20417;-78
2023/04/19 00:18:43;;;;;;;20.77;14.10;;;;;;;-144.87;100.00;61487.56;4933835;29;20426;-81
2023/04/19 00:21:10;;;;;;;21.40;13.50;;;;;;;-144.87;100.00;61487.56;4912367;29;20532;-78
2023/04/19 00:23:36;;;;;;;23.10;14.52;;;;;;;-144.87;100.00;61487.56;4916241;29;20161;-78
2023/04/19 00:26:03;;;;;;;20.08;14.70;;;;;;;-144.87;100.00;61487.56;4931869;29;20403;-78
2023/04/19 00:28:30;;;;;;;23.30;15.35;;;;;;;-144.87;100.00;61487.56;4935378;29;20121;-78
2023/04/19 00:30:56;;;;;;;26.33;15.52;;;;;;;-144.87;100.00;61487.56;4909308;29;20043;-78
2023/04/19 00:33:22;;;;;;;22.67;15.75;;;;;;;-144.87;100.00;61487.56;4916423;29;20050;-78
2023/04/19 00:35:49;;;;;;;25.70;15.68;;;;;;;-144.87;100.00;61487.56;4932425;29;20028;-78
2023/04/19 00:38:15;;;;;;;26.02;16.25;;;;;;;-144.87;100.00;61487.56;4933276;29;20058;-79
2023/04/19 00:40:45;;;;;;;24.77;15.65;;;;;;;-144.87;100.00;61487.56;4913900;29;20125;-78
2023/04/19 00:43:15;;;;;;;27.48;16.83;;;;;;;-144.87;100.00;61487.56;4913375;29;20039;-78
2023/04/19 00:45:41;;;;;;;25.42;17.05;;;;;;;-144.87;100.00;61487.56;4932308;29;20530;-78
2023/04/19 00:48:08;;;;;;;25.63;16.10;;;;;;;-144.87;100.00;61487.56;4913400;29;20118;-78
2023/04/19 00:50:34;;;;;;;23.80;16.52;;;;;;;-144.87;100.00;61487.56;4929706;29;20036;-78
2023/04/19 00:53:02;;;;;;;24.90;16.67;;;;;;;-144.87;100.00;61487.56;4942383;28;20035;-78
2023/04/19 00:55:30;;;;;;;28.17;19.02;;;;;;;-144.87;100.00;61487.56;4912829;29;20035;-79
2023/04/19 00:57:57;;;;;;;26.75;17.15;;;;;;;-144.87;100.00;61487.56;4916085;29;20128;-79
2023/04/19 01:00:23;;;;;;;24.33;15.52;;;;;;;-144.87;100.00;61487.56;4914174;29;20118;-78
2023/04/19 01:02:51;;;;;;;25.63;17.25;;;;;;;-144.87;100.00;61487.56;4911278;29;20071;-78
2023/04/19 01:05:18;;;;;;;26.40;16.70;;;;;;;-144.87;100.00;61487.56;4930513;29;20042;-78
2023/04/19 01:07:44;;;;;;;24.63;16.75;;;;;;;-144.87;100.00;61487.56;4914672;29;20040;-79
2023/04/19 01:10:14;;;;;;;24.88;16.30;;;;;;;-144.87;100.00;61487.56;4913711;29;20039;-78
2023/04/19 01:12:40;;;;;;;25.52;17.30;;;;;;;-144.87;100.00;61487.56;4898363;29;20106;-79
2023/04/19 01:15:07;;;;;;;28.10;17.65;;;;;;;-144.87;100.00;61487.56;4903445;29;20465;-78
2023/04/19 01:17:34;;;;;;;28.00;17.83;;;;;;;-144.87;100.00;61487.56;4929157;29;20032;-78
2023/04/19 01:20:06;;;;;;;25.83;16.98;;;;;;;-144.87;100.00;61487.56;4927792;29;20122;-79
2023/04/19 01:22:32;;;;;;;25.85;17.17;;;;;;;-144.87;100.00;61487.56;4900941;29;20032;-79
2023/04/19 01:24:58;;;;;;;26.92;18.83;;;;;;;-144.87;100.00;61487.56;4927021;29;20046;-79
2023/04/19 01:27:25;;;;;;;27.23;17.02;;;;;;;-144.87;100.00;61487.56;4914376;29;20043;-79
2023/04/19 01:29:51;;;;;;;26.08;18.45;;;;;;;-144.87;100.00;61487.56;4914229;29;20066;-79
2023/04/19 01:32:17;;;;;;;27.67;19.35;;;;;;;-144.87;100.00;61487.56;4898810;29;20039;-78
2023/04/19 01:34:44;;;;;;;29.10;18.75;;;;;;;-144.87;100.00;61487.56;4912730;29;20138;-79
2023/04/19 01:37:10;;;;;;;27.90;18.30;;;;;;;-144.87;100.00;61487.56;4906118;29;20413;-79
2023/04/19 01:39:36;;;;;;;29.23;19.13;;;;;;;-144.87;100.00;61487.56;4951617;28;20579;-79
2023/04/19 01:42:03;;;;;;;35.85;20.27;;;;;;;-144.87;100.00;61487.56;4931747;28;20566;-79
2023/04/19 01:44:29;;;;;;;26.88;18.25;;;;;;;-144.87;100.00;61487.56;4952475;28;20035;-79
2023/04/19 01:46:56;;;;;;;31.13;19.85;;;;;;;-144.87;100.00;61487.56;4915725;28;20126;-79
2023/04/19 01:49:22;;;;;;;31.52;19.42;;;;;;;-144.87;100.00;61487.56;4918383;28;20070;-80
2023/04/19 01:51:48;;;;;;;28.10;19.92;;;;;;;-144.87;100.00;61487.56;4946454;28;20035;-79
2023/04/19 01:54:15;;;;;;;34.38;21.08;;;;;;;-144.87;100.00;61487.56;4953964;28;20469;-79
2023/04/19 01:56:41;;;;;;;30.05;19.90;;;;;;;-144.87;100.00;61487.56;4931477;28;20046;-78
2023/04/19 01:59:07;;;;;;;25.23;18.25;;;;;;;-144.87;100.00;61487.56;4918947;28;20050;-78
2023/04/19 02:01:33;;;;;;;29.17;19.83;;;;;;;-144.87;100.00;61487.56;4932140;28;20141;-78
2023/04/19 02:04:01;;;;;;;30.55;20.20;;;;;;;-144.87;100.00;61487.56;4916241;28;20480;-78
2023/04/19 02:06:28;;;;;;;33.05;21.45;;;;;;;-144.87;100.00;61487.56;4915544;28;20039;-79
2023/04/19 02:08:54;;;;;;;32.47;20.77;;;;;;;-144.87;100.00;61487.56;4930416;28;20454;-80
2023/04/19 02:11:20;;;;;;;31.48;20.73;;;;;;;-144.87;100.00;61487.56;4918270;28;20123;-78
2023/04/19 02:13:46;;;;;;;30.52;20.20;;;;;;;-144.87;100.00;61487.56;4915488;28;20035;-78
2023/04/19 02:16:13;;;;;;;29.35;19.83;;;;;;;-144.87;100.00;61487.56;4913227;28;20032;-78
2023/04/19 02:18:40;;;;;;;30.75;19.52;;;;;;;-144.87;100.00;61487.56;4896236;28;20031;-78
2023/04/19 02:21:07;;;;;;;28.48;19.17;;;;;;;-144.87;100.00;61487.56;4931726;28;20031;-78
2023/04/19 02:23:34;;;;;;;29.08;20.10;;;;;;;-144.87;100.00;61487.56;4917129;28;20042;-78
2023/04/19 02:26:03;;;;;;;29.15;20.08;;;;;;;-144.87;100.00;61487.56;4916649;28;20109;-78
2023/04/19 02:28:30;;;;;;;32.72;20.65;;;;;;;-144.87;100.00;61487.56;4933233;28;20126;-78
2023/04/19 02:30:57;;;;;;;33.25;20.23;;;;;;;-144.87;100.00;61487.56;4932414;28;20083;-79
2023/04/19 02:33:26;;;;;;;29.25;20.88;;;;;;;-144.87;100.00;61487.56;4917974;28;20149;-78
2023/04/19 02:35:52;;;;;;;28.75;20.58;;;;;;;-144.87;100.00;61487.56;4913536;28;20035;-81
2023/04/19 02:38:18;;;;;;;30.63;19.65;;;;;;;-144.87;100.00;61487.56;4932888;28;20039;-78
2023/04/19 02:40:45;;;;;;;29.77;19.88;;;;;;;-144.87;100.00;61487.56;4914899;28;20047;-78
2023/04/19 02:43:11;;;;;;;26.60;19.00;;;;;;;-144.87;100.00;61487.56;4950154;28;20027;-78
2023/04/19 02:45:38;;;;;;;26.08;19.20;;;;;;;-144.87;100.00;61487.56;4917112;28;20523;-78
2023/04/19 02:48:05;;;;;;;28.42;19.73;;;;;;;-144.87;100.00;61487.56;4931815;28;20063;-78
2023/04/19 02:50:31;;;;;;;26.90;18.30;;;;;;;-144.87;100.00;61487.56;4946882;28;20039;-79
2023/04/19 02:52:58;;;;;;;27.73;17.60;;;;;;;-144.87;100.00;61487.56;4917556;28;20050;-78
2023/04/19 02:55:29;;;;;;;27.02;18.63;;;;;;;-144.87;100.00;61487.56;4915729;28;20121;-77
2023/04/19 02:58:04;;;;;;;38.92;20.02;;;;;;;-144.87;100.00;61487.56;4919125;28;20070;-79
2023/04/19 03:00:31;;;;;;;27.63;18.95;;;;;;;-144.87;100.00;61487.56;4929693;28;20035;-77
2023/04/19 03:03:04;;;;;;;26.95;19.05;;;;;;;-144.87;100.00;61487.56;4931663;28;20027;-79
2023/04/19 03:05:32;;;;;;;26.38;18.88;;;;;;;-144.87;100.00;61487.56;4914730;28;20444;-79
2023/04/19 03:07:58;;;;;;;27.35;19.02;;;;;;;-144.87;100.00;61487.56;4916260;28;20035;-79
2023/04/19 03:10:25;;;;;;;28.63;18.42;;;;;;;-144.87;100.00;61487.56;4931076;28;20392;-77
2023/04/19 03:12:51;;;;;;;25.50;17.42;;;;;;;-144.87;100.00;61487.56;4914308;28;20072;-77
2023/04/19 03:15:19;;;;;;;27.05;18.08;;;;;;;-144.87;100.00;61487.56;4930418;28;20070;-78
2023/04/19 03:17:45;;;;;;;30.10;18.75;;;;;;;-144.87;100.00;61487.56;4933875;28;20035;-77
2023/04/19 03:20:12;;;;;;;27.23;18.88;;;;;;;-144.87;100.00;61487.56;4932287;28;20110;-77
2023/04/19 03:22:38;;;;;;;26.98;17.88;;;;;;;-144.87;100.00;61487.56;4918759;28;20103;-79
2023/04/19 03:25:05;;;;;;;26.83;17.60;;;;;;;-144.87;100.00;61487.56;4948470;28;20998;-79
2023/04/19 03:27:34;;;;;;;28.05;18.08;;;;;;;-144.87;100.00;61487.56;4919345;28;20126;-79
2023/04/19 03:30:04;;;;;;;28.92;18.05;;;;;;;-144.87;100.00;61487.56;4933075;28;20083;-79
2023/04/19 03:32:31;;;;;;;27.98;17.55;;;;;;;-144.87;100.00;61487.56;4932029;28;20690;-77
2023/04/19 03:34:57;;;;;;;25.27;17.90;;;;;;;-144.87;100.00;61487.56;4908123;28;20040;-78
2023/04/19 03:37:24;;;;;;;27.45;18.23;;;;;;;-144.87;100.00;61487.56;4931597;28;20077;-81
2023/04/19 03:39:51;;;;;;;27.48;18.52;;;;;;;-144.87;100.00;61487.56;4914534;28;20131;-78
2023/04/19 03:42:23;;;;;;;25.38;16.92;;;;;;;-144.87;100.00;61487.56;4919363;28;20047;-78
2023/04/19 03:44:57;;;;;;;25.67;16.90;;;;;;;-144.87;100.00;61487.56;4934748;28;20039;-79
2023/04/19 03:47:25;;;;;;;24.52;16.90;;;;;;;-144.87;100.00;61487.56;4914289;28;20694;-79
2023/04/19 03:49:56;;;;;;;26.98;16.20;;;;;;;-144.87;100.00;61487.56;4929804;28;20401;-78
2023/04/19 03:52:24;;;;;;;23.35;14.77;;;;;;;-144.87;100.00;61487.56;4912694;28;20039;-79
2023/04/19 03:54:51;;;;;;;24.70;15.88;;;;;;;-144.87;100.00;61487.56;4931702;28;20034;-79
2023/04/19 03:57:33;;;;;;;23.60;14.98;;;;;;;-144.87;100.00;61487.56;4916848;28;20134;-78
2023/04/19 04:00:08;;;;;;;23.88;16.25;;;;;;;-144.87;100.00;61487.56;4932180;28;20041;-79
2023/04/19 04:02:40;;;;;;;23.55;15.75;;;;;;;-144.87;100.00;61487.56;4934058;28;20138;-77
2023/04/19 04:05:07;;;;;;;22.05;15.90;;;;;;;-144.87;100.00;61487.56;4931243;28;20027;-79
2023/04/19 04:07:34;;;;;;;21.33;15.20;;;;;;;-144.87;100.00;61487.56;4932306;28;20061;-79
2023/04/19 04:10:02;;;;;;;24.52;16.13;;;;;;;-144.87;100.00;61487.56;4929661;28;20098;-78
2023/04/19 04:12:30;;;;;;;27.73;14.93;;;;;;;-144.87;100.00;61487.56;4935547;28;20038;-78
2023/04/19 04:14:57;;;;;;;20.00;14.57;;;;;;;-144.87;100.00;61487.56;4951181;28;20051;-78
2023/04/19 04:17:25;;;;;;;27.65;16.25;;;;;;;-144.87;100.00;61487.56;4934131;28;20027;-78
2023/04/19 04:19:51;;;;;;;20.52;14.80;;;;;;;-144.87;100.00;61487.56;4932934;28;20043;-77
2023/04/19 04:22:18;;;;;;;22.80;15.13;;;;;;;-144.87;100.00;61487.56;4936853;28;20051;-78
2023/04/19 04:24:46;;;;;;;25.48;15.98;;;;;;;-144.87;100.00;61487.56;4918178;29;20035;-79
2023/04/19 04:27:22;;;;;;;24.27;14.35;;;;;;;-144.87;100.00;61487.56;4921352;28;20042;-78
2023/04/19 04:29:52;;;;;;;23.20;15.10;;;;;;;-144.87;100.00;61487.56;4919657;28;20098;-78
2023/04/19 04:32:21;;;;;;;22.70;15.68;;;;;;;-144.87;100.00;61487.56;4917613;28;20126;-78
2023/04/19 04:34:49;;;;;;;23.10;16.00;;;;;;;-144.87;100.00;61487.56;4916787;28;20035;-78
2023/04/19 04:37:24;;;;;;;24.90;15.35;;;;;;;-144.87;100.00;61487.56;4919877;28;20035;-78
2023/04/19 04:39:51;;;;;;;25.77;14.90;;;;;;;-144.87;100.00;61487.56;4902503;28;20130;-78
2023/04/19 04:42:20;;;;;;;22.45;15.68;;;;;;;-144.87;100.00;61487.56;4935214;28;20489;-78
2023/04/19 04:44:46;;;;;;;23.02;14.95;;;;;;;-144.87;100.00;61487.56;4920873;28;20516;-78
2023/04/19 04:47:13;;;;;;;28.45;15.43;;;;;;;-144.87;100.00;61487.56;4917365;28;20031;-78
2023/04/19 04:49:46;;;;;;;25.30;15.95;;;;;;;-144.87;100.00;61487.56;4931191;28;20122;-78
2023/04/19 04:52:12;;;;;;;23.70;15.48;;;;;;;-144.87;100.00;61487.56;4954260;28;20037;-78
2023/04/19 04:54:49;;;;;;;23.15;14.52;;;;;;;-144.87;100.00;61487.56;4918379;29;20042;-78
2023/04/19 04:57:22;;;;;;;24.85;15.50;;;;;;;-144.87;100.00;61487.56;4904660;28;20053;-78
2023/04/19 04:59:49;;;;;;;26.67;16.17;;;;;;;-144.87;100.00;61487.56;4928496;28;20067;-78
2023/04/19 05:02:17;;;;;;;23.90;15.15;;;;;;;-144.87;100.00;61487.56;4936154;28;20221;-78
2023/04/19 05:04:44;;;;;;;26.85;15.93;;;;;;;-144.87;100.00;61487.56;4947572;28;20043;-78
2023/04/19 05:07:11;;;;;;;24.17;15.73;;;;;;;-144.87;100.00;61487.56;4950411;28;20042;-78
2023/04/19 05:09:37;;;;;;;27.52;14.65;;;;;;;-144.87;100.00;61487.56;4934380;29;20115;-78
2023/04/19 05:12:04;;;;;;;24.50;14.68;;;;;;;-144.87;100.00;61487.56;4933307;29;20047;-78
2023/04/19 05:14:30;;;;;;;28.92;16.67;;;;;;;-144.87;100.00;61487.56;4931464;28;20039;-77
2023/04/19 05:16:57;;;;;;;26.17;16.02;;;;;;;-144.87;100.00;61487.56;4920080;29;20039;-77
2023/04/19 05:19:23;;;;;;;23.92;14.55;;;;;;;-144.87;100.00;61487.56;4916678;29;20039;-77
2023/04/19 05:21:56;;;;;;;24.25;16.20;;;;;;;-144.87;100.00;61487.56;4931755;29;20039;-78
2023/04/19 05:24:22;;;;;;;22.23;14.48;;;;;;;-144.87;100.00;61487.56;4886375;29;20039;-78
2023/04/19 05:26:50;;;;;;;23.35;14.63;;;;;;;-144.87;100.00;61487.56;4945752;28;20138;-78
2023/04/19 05:29:17;;;;;;;21.00;13.52;;;;;;;-144.87;100.00;61487.56;4903790;29;20035;-79
2023/04/19 05:31:46;;;;;;;22.90;14.98;;;;;;;-144.87;100.00;61487.56;4920416;29;20050;-78
2023/04/19 05:34:25;;;;;;;26.58;13.55;;;;;;;-144.87;100.00;61487.56;4922758;29;20248;-78
2023/04/19 05:36:53;;;;;;;20.23;13.73;;;;;;;-144.87;100.00;61487.56;4943496;29;20448;-78
2023/04/19 05:39:20;;;;;;;24.25;14.02;;;;;;;-144.87;100.00;61487.56;4924401;29;20137;-78
2023/04/19 05:41:46;;;;;;;24.85;13.65;;;;;;;-144.87;100.00;61487.56;4920695;29;20050;-78
2023/04/19 05:44:13;;;;;;;20.95;13.70;;;;;;;-144.87;100.00;61487.56;4935601;29;20036;-78
2023/04/19 05:46:39;;;;;;;25.55;14.80;;;;;;;-144.87;100.00;61487.56;4920461;29;20476;-79
2023/04/19 05:49:08;;;;;;;19.08;13.07;;;;;;;-144.87;100.00;61487.56;4918722;29;20040;-78
2023/04/19 05:51:58;;;;;;;23.38;13.10;;;;;;;-144.87;100.00;61487.56;4935042;28;20039;-77
2023/04/19 05:54:34;;;;;;;19.60;12.45;;;;;;;-144.87;100.00;61487.56;4936386;29;20039;-85
2023/04/19 05:57:02;;;;;;;15.77;11.05;;;;;;;-144.87;100.00;61487.56;4909602;29;20039;-78
2023/04/19 05:59:28;;;;;;;16.77;11.43;;;;;;;-144.87;100.00;61487.56;4910858;29;20409;-77
2023/04/19 06:01:55;;;;;;;16.70;11.63;;;;;;;-144.87;100.00;61487.56;4926764;29;20451;-77
2023/04/19 06:04:21;;;;;;;18.77;10.88;;;;;;;-144.87;100.00;61487.56;4897670;28;20061;-79
2023/04/19 06:06:48;;;;;;;17.83;10.95;;;;;;;-144.87;100.00;61487.56;4944492;28;20043;-77
2023/04/19 06:09:14;;;;;;;17.05;11.25;;;;;;;-144.87;100.00;61487.56;4949370;28;20058;-77
2023/04/19 06:11:41;;;;;;;13.27;10.05;;;;;;;-144.87;100.00;61487.56;4936177;28;20039;-79
2023/04/19 06:14:09;;;;;;;17.10;9.88;;;;;;;-144.87;100.00;61487.56;4927320;29;20035;-78
2023/04/19 06:16:35;;;;;;;16.13;10.40;;;;;;;-144.87;100.00;61487.56;4910098;29;20031;-78
2023/04/19 06:19:02;;;;;;;15.77;10.20;;;;;;;-144.87;100.00;61487.56;4908337;29;20042;-78
2023/04/19 06:21:31;;;;;;;17.65;11.07;;;;;;;-144.87;100.00;61487.56;4910298;28;20050;-78
2023/04/19 06:23:58;;;;;;;13.30;9.60;;;;;;;-144.87;100.00;61487.56;4917214;29;20405;-81
2023/04/19 06:26:24;;;;;;;13.63;9.10;;;;;;;-144.87;100.00;61487.56;4944414;28;20042;-78
2023/04/19 06:28:51;;;;;;;16.15;9.32;;;;;;;-144.87;100.00;61487.56;4924232;29;20508;-77
2023/04/19 06:31:17;;;;;;;15.30;9.98;;;;;;;-144.87;100.00;61487.56;4917631;29;20146;-78
2023/04/19 06:33:43;;;;;;;15.57;10.27;;;;;;;-144.87;100.00;61487.56;4927058;29;20043;-79
2023/04/19 06:36:10;;;;;;;20.35;9.68;;;;;;;-144.87;100.00;61487.56;4946285;29;20051;-77
2023/04/19 06:38:40;;;;;;;15.90;9.02;;;;;;;-144.87;100.00;61487.56;4921016;29;20055;-78
2023/04/19 06:41:08;;;;;;;16.15;9.00;;;;;;;-144.87;100.00;61487.56;4917605;29;20066;-78
2023/04/19 06:43:34;;;;;;;19.52;9.45;;;;;;;-144.87;100.00;61487.56;4947517;28;20055;-77
2023/04/19 06:46:01;;;;;;;14.15;9.07;;;;;;;-144.87;100.00;61487.56;4919522;29;20130;-79
2023/04/19 06:48:28;;;;;;;17.75;9.50;;;;;;;-144.87;100.00;61487.56;4911453;29;20489;-77
2023/04/19 06:50:54;;;;;;;10.93;8.30;;;;;;;-144.87;100.00;61487.56;4923332;29;20054;-78
2023/04/19 06:53:20;;;;;;;15.77;9.07;;;;;;;-144.87;100.00;61487.56;4916941;29;20139;-81
2023/04/19 06:55:47;;;;;;;18.00;8.98;;;;;;;-144.87;100.00;61487.56;4929296;29;20126;-77
2023/04/19 06:58:13;;;;;;;14.85;8.68;;;;;;;-144.87;100.00;61487.56;4938984;29;20169;-77
2023/04/19 07:00:40;;;;;;;11.60;7.85;;;;;;;-144.87;100.00;61487.56;4944814;29;20070;-81
2023/04/19 07:03:06;;;;;;;12.07;7.85;;;;;;;-144.87;100.00;61487.56;4928572;29;20051;-78
2023/04/19 07:05:32;;;;;;;15.95;8.27;;;;;;;-144.87;100.00;61487.56;4923632;29;20412;-77
2023/04/19 07:07:58;;;;;;;12.75;8.30;;;;;;;-144.87;100.00;61487.56;4922247;29;20115;-78
2023/04/19 07:10:25;;;;;;;11.85;6.95;;;;;;;-144.87;100.00;61487.56;4941808;28;20034;-77
2023/04/19 07:12:51;;;;;;;12.60;7.82;;;;;;;-144.87;100.00;61487.56;4942767;29;20133;-78
2023/04/19 07:15:17;;;;;;;11.20;7.43;;;;;;;-144.87;100.00;61487.56;4928174;29;20072;-77
2023/04/19 07:17:44;;;;;;;12.38;6.85;;;;;;;-144.87;100.00;61487.56;4917267;29;20062;-77
2023/04/19 07:20:10;;;;;;;29.88;7.00;;;;;;;-144.87;100.00;61487.56;4926619;29;20066;-76
2023/04/19 07:22:37;;;;;;;14.73;6.18;;;;;;;-144.87;100.00;61487.56;4940898;29;20046;-77
2023/04/19 07:25:03;;;;;;;10.23;5.90;;;;;;;-144.87;100.00;61487.56;4928344;29;20047;-78
2023/04/19 07:27:29;;;;;;;13.48;6.13;;;;;;;-144.87;100.00;61487.56;4892626;29;20051;-78
2023/04/19 07:29:56;;;;;;;19.88;6.40;;;;;;;-144.87;100.00;61487.56;4926078;29;20052;-81
2023/04/19 07:32:22;;;;;;;9.38;5.68;;;;;;;-144.87;100.00;61487.56;4935244;29;20116;-79
2023/04/19 07:34:51;;;;;;;9.90;5.22;;;;;;;-144.87;100.00;61487.56;4931812;29;20039;-78
2023/04/19 07:37:18;;;;;;;11.07;5.20;;;;;;;-144.87;100.00;61487.56;4947182;29;20047;-79
2023/04/19 07:39:44;;;;;;;10.90;5.38;;;;;;;-144.87;100.00;61487.56;4904185;29;20056;-78
2023/04/19 07:42:11;;;;;;;11.18;5.78;;;;;;;-144.87;100.00;61487.56;4912938;29;20043;-79
2023/04/19 07:44:37;;;;;;;8.65;5.13;;;;;;;-144.87;100.00;61487.56;4931717;29;20065;-78
2023/04/19 07:47:05;;;;;;;10.00;5.43;;;;;;;-144.87;100.00;61487.56;4923793;29;20090;-79
2023/04/19 07:49:33;;;;;;;9.75;5.68;;;;;;;-144.87;100.00;61487.56;4931331;29;20107;-79
2023/04/19 07:52:05;;;;;;;5.97;4.50;;;;;;;-144.87;100.00;61487.56;4949087;28;20035;-79
2023/04/19 07:54:33;;;;;;;10.88;4.93;;;;;;;-144.87;100.00;61487.56;4912521;29;20782;-79
2023/04/19 07:56:59;;;;;;;14.77;5.22;;;;;;;-144.87;100.00;61487.56;4903109;29;20477;-79
2023/04/19 07:59:25;;;;;;;12.55;6.43;;;;;;;-144.87;100.00;61487.56;4935245;29;20042;-80
2023/04/19 08:01:52;;;;;;;12.27;5.38;;;;;;;-144.87;100.00;61487.56;4938009;29;20043;-79
2023/04/19 08:04:18;;;;;;;15.18;5.13;;;;;;;-144.87;100.00;61487.56;4935888;29;20354;-79
2023/04/19 08:06:45;;;;;;;11.15;5.20;;;;;;;-144.87;100.00;61487.56;4944823;29;20050;-79
2023/04/19 08:09:11;;;;;;;12.48;4.50;;;;;;;-144.87;100.00;61487.56;4954769;29;20054;-81
2023/04/19 08:11:37;;;;;;;9.32;4.40;;;;;;;-144.87;100.00;61487.56;4936623;29;20126;-79
2023/04/19 08:14:04;;;;;;;12.48;5.18;;;;;;;-144.87;100.00;61487.56;4903705;29;20063;-78
2023/04/19 08:16:31;;;;;;;10.02;5.25;;;;;;;-144.87;100.00;61487.56;4935560;29;20460;-78
2023/04/19 08:19:15;;;;;;;7.95;4.95;;;;;;;-144.87;100.00;61487.56;4933716;28;20043;-81
2023/04/19 08:21:42;;;;;;;9.48;4.78;;;;;;;-144.87;100.00;61487.56;4923461;29;20109;-78
2023/04/19 08:24:08;;;;;;;7.43;5.03;;;;;;;-144.87;100.00;61487.56;4916452;29;20051;-79
2023/04/19 08:26:34;;;;;;;9.25;4.78;;;;;;;-144.87;100.00;61487.56;4938016;28;20043;-79
2023/04/19 08:29:01;;;;;;;9.00;4.25;;;;;;;-144.87;100.00;61487.56;4924092;29;20054;-78
2023/04/19 08:31:27;;;;;;;8.57;4.13;;;;;;;-144.87;100.00;61487.56;4923838;29;20122;-79
2023/04/19 08:33:53;;;;;;;9.90;4.50;;;;;;;-144.87;100.00;61487.56;4908676;29;20561;-79
2023/04/19 08:36:19;;;;;;;9.45;4.53;;;;;;;-144.87;100.00;61487.56;4939951;29;20117;-79
2023/04/19 08:38:47;;;;;;;8.48;4.68;;;;;;;-144.87;100.00;61487.56;4921320;29;20052;-83
2023/04/19 08:41:14;;;;;;;10.25;3.80;;;;;;;-144.87;100.00;61487.56;4939285;29;20109;-82
2023/04/19 08:43:42;;;;;;;7.28;4.53;;;;;;;-144.87;100.00;61487.56;4906000;29;20851;-78
2023/04/19 08:46:10;;;;;;;6.00;3.95;;;;;;;-144.87;100.00;61487.56;4905281;29;20054;-79
2023/04/19 08:48:37;;;;;;;9.88;3.97;;;;;;;-144.87;100.00;61487.56;4921330;29;20063;-79
2023/04/19 08:51:03;;;;;;;10.77;3.70;;;;;;;-144.87;100.00;61487.56;4921121;29;20139;-78
2023/04/19 08:53:29;;;;;;;14.80;3.88;;;;;;;-144.87;100.00;61487.56;4922593;29;20055;-80
2023/04/19 08:55:59;;;;;;;8.18;3.83;;;;;;;-144.87;100.00;61487.56;4922619;29;20656;-82
2023/04/19 08:58:28;;;;;;;14.55;3.67;;;;;;;-144.87;100.00;61487.56;4908244;29;20023;-79
2023/04/19 09:00:55;;;;;;;7.28;4.30;;;;;;;-144.87;100.00;61487.56;4913433;29;20046;-80
2023/04/19 09:03:21;;;;;;;5.18;2.95;;;;;;;-144.87;100.00;61487.56;4892051;28;20046;-80
2023/04/19 09:05:48;;;;;;;7.95;3.60;;;;;;;-144.87;100.00;61487.56;4908681;29;20154;-79
2023/04/19 09:08:28;;;;;;;15.18;3.50;;;;;;;-144.87;100.00;61487.56;4924000;29;20043;-78
2023/04/19 09:10:57;;;;;;;6.57;2.75;;;;;;;-144.87;100.00;61487.56;4906387;29;20034;-79
2023/04/19 09:13:23;;;;;;;7.68;2.78;;;;;;;-144.87;100.00;61487.56;4911935;29;20062;-79
2023/04/19 09:15:50;;;;;;;6.05;2.67;;;;;;;-144.87;100.00;61487.56;4927415;29;20046;-79
2023/04/19 09:18:18;;;;;;;6.05;3.00;;;;;;;-144.87;100.00;61487.56;4933179;29;20039;-79
2023/04/19 09:20:45;;;;;;;4.53;2.63;;;;;;;-144.87;100.00;61487.56;4906659;29;20047;-78
2023/04/19 09:23:16;;;;;;;10.75;2.50;;;;;;;-144.87;100.00;61487.56;4936191;29;20049;-78
2023/04/19 09:26:00;;;;;;;8.15;2.67;;;;;;;-144.87;100.00;61487.56;4929046;29;20408;-80
2023/04/19 09:28:27;;;;;;;6.18;2.30;;;;;;;-144.87;100.00;61487.56;4902907;29;20566;-79
2023/04/19 09:30:55;;;;;;;3.92;2.60;;;;;;;-144.87;100.00;61487.56;4907158;29;20485;-84
2023/04/19 09:33:36;;;;;;;5.40;2.17;;;;;;;-144.87;100.00;61487.56;4905690;29;20087;-80
2023/04/19 09:36:02;;;;;;;7.30;2.22;;;;;;;-144.87;100.00;61487.56;4937166;29;20043;-77
2023/04/19 09:38:29;;;;;;;6.32;2.20;;;;;;;-144.87;100.00;61487.56;4905043;29;20137;-79
2023/04/19 09:41:09;;;;;;;7.45;2.83;;;;;;;-144.87;100.00;61487.56;4928281;28;20039;-78
2023/04/19 09:43:36;;;;;;;7.60;2.50;;;;;;;-144.87;100.00;61487.56;4925196;29;20049;-79
2023/04/19 09:46:02;;;;;;;5.45;2.38;;;;;;;-144.87;100.00;61487.56;4914810;29;20763;-78
2023/04/19 09:48:29;;;;;;;9.70;2.78;;;;;;;-144.87;100.00;61487.56;4913006;29;20151;-78
2023/04/19 09:50:56;;;;;;;4.03;2.17;;;;;;;-144.87;100.00;61487.56;4921665;29;20051;-78
2023/04/19 09:53:24;;;;;;;5.55;2.70;;;;;;;-144.87;100.00;61487.56;4897735;29;20031;-78
2023/04/19 09:55:50;;;;;;;4.40;2.28;;;;;;;-144.87;100.00;61487.56;4913600;29;20472;-78
2023/04/19 09:58:18;;;;;;;4.55;3.35;;;;;;;-144.87;100.00;61487.56;4916433;29;20039;-79
2023/04/19 10:00:46;;;;;;;3.83;2.58;;;;;;;-144.87;100.00;61487.56;4904464;29;20107;-86
2023/04/19 10:03:13;;;;;;;10.68;2.70;;;;;;;-144.87;100.00;61487.56;4910459;29;20487;-80
2023/04/19 10:05:40;;;;;;;4.88;2.60;;;;;;;-144.87;100.00;61487.56;4922746;29;20054;-81
2023/04/19 10:08:08;;;;;;;14.07;3.50;;;;;;;-144.87;100.00;61487.56;4893319;29;20051;-79
2023/04/19 10:10:35;;;;;;;7.50;2.65;;;;;;;-144.87;100.00;61487.56;4924005;29;20069;-79
2023/04/19 10:13:04;;;;;;;4.85;2.60;;;;;;;-144.87;100.00;61487.56;4926717;29;20125;-78
2023/04/19 10:15:31;;;;;;;5.05;2.67;;;;;;;-144.87;100.00;61487.56;4926344;29;20035;-78
2023/04/19 10:17:57;;;;;;;16.27;4.22;;;;;;;-144.87;100.00;61487.56;4918998;29;20536;-78
2023/04/19 10:20:32;;;;;;;7.57;2.90;;;;;;;-144.87;100.00;61487.56;4913840;29;20042;-79
2023/04/19 10:22:59;;;;;;;11.35;3.10;;;;;;;-144.87;100.00;61487.56;4907642;29;20546;-80
2023/04/19 10:25:29;;;;;;;4.45;2.60;;;;;;;-144.87;100.00;61487.56;4907301;29;20561;-83
2023/04/19 10:27:57;;;;;;;4.82;2.30;;;;;;;-144.87;100.00;61487.56;4919659;29;20119;-88
2023/04/19 10:30:27;;;;;;;6.70;2.50;;;;;;;-144.87;100.00;61487.56;4904559;29;20036;-78
2023/04/19 10:32:55;;;;;;;6.22;2.78;;;;;;;-144.87;100.00;61487.56;4925539;29;20381;-81
2023/04/19 10:35:31;;;;;;;3.78;2.67;;;;;;;-144.87;100.00;61487.56;4916919;29;20054;-79
2023/04/19 10:38:12;;;;;;;7.35;3.08;;;;;;;-144.87;100.00;61487.56;4924346;29;20117;-80
2023/04/19 10:40:50;;;;;;;;;;;;;;;-144.87;100.00;61487.56;4921590;29;20051;-79
2023/04/19 10:43:18;;;;;;;5.45;2.25;;;;;;;-144.87;100.00;61487.56;4931217;29;19914;-78
2023/04/19 10:45:45;;;;;;;13.10;2.78;;;;;;;-144.87;100.00;61487.56;4892539;29;20094;-78
2023/04/19 10:48:31;;;;;;;6.65;2.33;;;;;;;-144.87;100.00;61487.56;4905955;29;20048;-78
2023/04/19 10:51:10;;;;;;;13.00;3.28;;;;;;;-144.87;100.00;61487.56;4918693;29;20026;-78
2023/04/19 10:53:49;;;;;;;6.85;2.50;;;;;;;-144.87;100.00;61487.56;4905429;29;20396;-79
2023/04/19 10:56:32;;;;;;;9.52;2.30;;;;;;;-144.87;100.00;61487.56;4917590;29;20142;-78
2023/04/19 10:59:06;;;;;;;7.68;2.50;;;;;;;-144.87;100.00;61487.56;4937777;29;20034;-77
2023/04/19 11:01:43;;;;;;;4.40;2.35;;;;;;;-144.87;100.00;61487.56;4926943;29;20038;-77
2023/04/19 11:04:28;;;;;;;4.20;2.30;;;;;;;-144.87;100.00;61487.56;4906508;29;20429;-78